sensor_id;sensor_type;location;lat;lon;timestamp;pressure;altitude;pressure_sealevel;temperature;humidity
55490;BME280;44029;52.956;4.772;2023-04-25T00:00:25;101154.97;;;9.01;100.00
55490;BME280;44029;52.956;4.772;2023-04-25T00:02:50;101146.59;;;8.84;100.00
55490;BME280;44029;52.956;4.772;2023-04-25T00:05:16;101143.09;;;8.95;100.00
55490;BME280;44029;52.956;4.772;2023-04-25T00:07:42;101147.88;;;9.00;100.00
55490;BME280;44029;52.956;4.772;2023-04-25T00:10:08;101141.16;;;9.26;100.00
55490;BME280;44029;52.956;4.772;2023-04-25T00:12:34;101152.91;;;9.15;100.00
55490;BME280;44029;52.956;4.772;2023-04-25T00:15:01;101145.31;;;9.17;100.00
55490;BME280;44029;52.956;4.772;2023-04-25T00:17:26;101150.78;;;9.17;100.00
55490;BME280;44029;52.956;4.772;2023-04-25T00:19:51;101157.41;;;9.09;100.00
55490;BME280;44029;52.956;4.772;2023-04-25T00:22:17;101150.78;;;9.17;100.00
55490;BME280;44029;52.956;4.772;2023-04-25T00:24:43;101153.44;;;9.35;100.00
55490;BME280;44029;52.956;4.772;2023-04-25T00:27:08;101162.69;;;9.34;100.00
55490;BME280;44029;52.956;4.772;2023-04-25T00:29:34;101166.50;;;9.33;100.00
55490;BME280;44029;52.956;4.772;2023-04-25T00:31:59;101166.28;;;9.46;100.00
55490;BME280;44029;52.956;4.772;2023-04-25T00:34:25;101162.00;;;9.39;100.00
55490;BME280;44029;52.956;4.772;2023-04-25T00:36:51;101162.69;;;9.34;100.00
55490;BME280;44029;52.956;4.772;2023-04-25T00:39:16;101161.41;;;9.37;100.00
55490;BME280;44029;52.956;4.772;2023-04-25T00:41:41;101172.72;;;9.40;100.00
55490;BME280;44029;52.956;4.772;2023-04-25T00:44:09;101171.66;;;9.53;100.00
55490;BME280;44029;52.956;4.772;2023-04-25T00:46:36;101168.16;;;9.34;100.00
55490;BME280;44029;52.956;4.772;2023-04-25T00:49:02;101177.03;;;9.18;100.00
55490;BME280;44029;52.956;4.772;2023-04-25T00:51:27;101170.75;;;9.29;100.00
55490;BME280;44029;52.956;4.772;2023-04-25T00:53:53;101178.09;;;9.17;100.00
55490;BME280;44029;52.956;4.772;2023-04-25T00:56:20;101174.41;;;9.11;100.00
55490;BME280;44029;52.956;4.772;2023-04-25T00:58:46;101175.69;;;9.08;100.00
55490;BME280;44029;52.956;4.772;2023-04-25T01:01:12;101167.81;;;9.00;100.00
55490;BME280;44029;52.956;4.772;2023-04-25T01:03:39;101177.56;;;8.96;100.00
55490;BME280;44029;52.956;4.772;2023-04-25T01:06:09;101186.88;;;9.07;100.00
55490;BME280;44029;52.956;4.772;2023-04-25T01:08:38;101180.50;;;9.25;100.00
55490;BME280;44029;52.956;4.772;2023-04-25T01:11:04;101179.94;;;9.04;100.00
55490;BME280;44029;52.956;4.772;2023-04-25T01:13:30;101182.81;;;9.09;100.00
55490;BME280;44029;52.956;4.772;2023-04-25T01:15:57;101183.06;;;9.08;100.00
55490;BME280;44029;52.956;4.772;2023-04-25T01:18:23;101182.63;;;9.23;100.00
55490;BME280;44029;52.956;4.772;2023-04-25T01:20:51;101171.13;;;9.33;100.00
55490;BME280;44029;52.956;4.772;2023-04-25T01:23:18;101185.97;;;9.25;100.00
55490;BME280;44029;52.956;4.772;2023-04-25T01:25:43;101185.84;;;9.20;100.00
55490;BME280;44029;52.956;4.772;2023-04-25T01:28:09;101184.03;;;9.14;100.00
55490;BME280;44029;52.956;4.772;2023-04-25T01:30:35;101184.97;;;9.50;100.00
55490;BME280;44029;52.956;4.772;2023-04-25T01:33:01;101184.78;;;9.33;100.00
55490;BME280;44029;52.956;4.772;2023-04-25T01:35:26;101189.78;;;9.24;100.00
55490;BME280;44029;52.956;4.772;2023-04-25T01:37:51;101191.72;;;9.35;100.00
55490;BME280;44029;52.956;4.772;2023-04-25T01:40:17;101207.81;;;9.25;100.00
55490;BME280;44029;52.956;4.772;2023-04-25T01:42:45;101209.84;;;8.99;100.00
55490;BME280;44029;52.956;4.772;2023-04-25T01:45:11;101210.06;;;8.49;100.00
55490;BME280;44029;52.956;4.772;2023-04-25T01:47:37;101221.38;;;8.52;100.00
55490;BME280;44029;52.956;4.772;2023-04-25T01:50:05;101212.47;;;8.39;100.00
55490;BME280;44029;52.956;4.772;2023-04-25T01:52:32;101212.88;;;8.42;100.00
55490;BME280;44029;52.956;4.772;2023-04-25T01:54:59;101217.97;;;8.57;100.00
55490;BME280;44029;52.956;4.772;2023-04-25T01:57:25;101221.09;;;8.36;100.00
55490;BME280;44029;52.956;4.772;2023-04-25T01:59:50;101220.22;;;8.42;100.00
55490;BME280;44029;52.956;4.772;2023-04-25T02:02:16;101225.78;;;8.54;100.00
55490;BME280;44029;52.956;4.772;2023-04-25T02:04:41;101222.06;;;8.48;100.00
55490;BME280;44029;52.956;4.772;2023-04-25T02:07:07;101230.09;;;8.80;100.00
55490;BME280;44029;52.956;4.772;2023-04-25T02:09:32;101226.06;;;8.64;100.00
55490;BME280;44029;52.956;4.772;2023-04-25T02:11:57;101225.69;;;8.60;100.00
55490;BME280;44029;52.956;4.772;2023-04-25T02:14:23;101229.34;;;8.54;100.00
55490;BME280;44029;52.956;4.772;2023-04-25T02:16:48;101227.53;;;8.66;100.00
55490;BME280;44029;52.956;4.772;2023-04-25T02:19:14;101222.88;;;8.67;100.00
55490;BME280;44029;52.956;4.772;2023-04-25T02:21:39;101233.00;;;8.66;100.00
55490;BME280;44029;52.956;4.772;2023-04-25T02:24:05;101231.31;;;8.65;100.00
55490;BME280;44029;52.956;4.772;2023-04-25T02:26:31;101228.88;;;8.57;100.00
55490;BME280;44029;52.956;4.772;2023-04-25T02:28:56;101231.91;;;8.67;100.00
55490;BME280;44029;52.956;4.772;2023-04-25T02:31:22;101228.34;;;8.67;100.00
55490;BME280;44029;52.956;4.772;2023-04-25T02:33:48;101235.25;;;8.69;100.00
55490;BME280;44029;52.956;4.772;2023-04-25T02:36:13;101238.81;;;8.51;100.00
55490;BME280;44029;52.956;4.772;2023-04-25T02:38:39;101246.31;;;8.75;100.00
55490;BME280;44029;52.956;4.772;2023-04-25T02:41:04;101236.59;;;8.60;100.00
55490;BME280;44029;52.956;4.772;2023-04-25T02:43:30;101235.25;;;8.51;100.00
55490;BME280;44029;52.956;4.772;2023-04-25T02:45:55;101240.19;;;8.61;100.00
55490;BME280;44029;52.956;4.772;2023-04-25T02:48:21;101237.75;;;8.52;100.00
55490;BME280;44029;52.956;4.772;2023-04-25T02:50:46;101248.44;;;8.29;100.00
55490;BME280;44029;52.956;4.772;2023-04-25T02:53:12;101245.59;;;8.24;100.00
55490;BME280;44029;52.956;4.772;2023-04-25T02:55:37;101242.16;;;8.28;100.00
55490;BME280;44029;52.956;4.772;2023-04-25T02:58:02;101241.38;;;8.21;100.00
55490;BME280;44029;52.956;4.772;2023-04-25T03:00:28;101240.94;;;8.24;100.00
55490;BME280;44029;52.956;4.772;2023-04-25T03:02:54;101241.13;;;8.29;100.00
55490;BME280;44029;52.956;4.772;2023-04-25T03:05:20;101238.81;;;8.26;100.00
55490;BME280;44029;52.956;4.772;2023-04-25T03:07:45;101243.81;;;8.11;100.00
55490;BME280;44029;52.956;4.772;2023-04-25T03:10:11;101239.88;;;8.25;100.00
55490;BME280;44029;52.956;4.772;2023-04-25T03:12:37;101245.84;;;8.16;100.00
55490;BME280;44029;52.956;4.772;2023-04-25T03:15:03;101255.00;;;8.28;100.00
55490;BME280;44029;52.956;4.772;2023-04-25T03:17:29;101242.16;;;8.28;100.00
55490;BME280;44029;52.956;4.772;2023-04-25T03:19:54;101252.78;;;8.18;100.00
55490;BME280;44029;52.956;4.772;2023-04-25T03:22:20;101254.00;;;8.22;100.00
55490;BME280;44029;52.956;4.772;2023-04-25T03:24:45;101262.34;;;8.27;100.00
55490;BME280;44029;52.956;4.772;2023-04-25T03:27:11;101247.72;;;8.22;100.00
55490;BME280;44029;52.956;4.772;2023-04-25T03:29:36;101253.09;;;8.28;100.00
55490;BME280;44029;52.956;4.772;2023-04-25T03:32:01;101245.22;;;8.39;100.00
55490;BME280;44029;52.956;4.772;2023-04-25T03:34:27;101246.50;;;8.36;100.00
55490;BME280;44029;52.956;4.772;2023-04-25T03:36:53;101259.03;;;8.44;100.00
55490;BME280;44029;52.956;4.772;2023-04-25T03:39:18;101259.03;;;8.44;100.00
55490;BME280;44029;52.956;4.772;2023-04-25T03:41:43;101260.81;;;8.57;100.00
55490;BME280;44029;52.956;4.772;2023-04-25T03:44:09;101257.69;;;8.53;100.00
55490;BME280;44029;52.956;4.772;2023-04-25T03:46:34;101267.50;;;8.36;100.00
55490;BME280;44029;52.956;4.772;2023-04-25T03:49:00;101262.63;;;8.44;100.00
55490;BME280;44029;52.956;4.772;2023-04-25T03:51:25;101271.03;;;8.43;100.00
55490;BME280;44029;52.956;4.772;2023-04-25T03:53:51;101268.91;;;8.45;100.00
55490;BME280;44029;52.956;4.772;2023-04-25T03:56:17;101279.41;;;8.41;100.00
55490;BME280;44029;52.956;4.772;2023-04-25T03:58:42;101272.53;;;8.39;100.00
55490;BME280;44029;52.956;4.772;2023-04-25T04:01:07;101271.53;;;8.33;100.00
55490;BME280;44029;52.956;4.772;2023-04-25T04:03:34;101281.38;;;8.34;100.00
55490;BME280;44029;52.956;4.772;2023-04-25T04:06:01;101290.38;;;8.35;100.00
55490;BME280;44029;52.956;4.772;2023-04-25T04:08:26;101283.63;;;8.44;100.00
55490;BME280;44029;52.956;4.772;2023-04-25T04:10:51;101288.84;;;8.45;100.00
55490;BME280;44029;52.956;4.772;2023-04-25T04:13:17;101292.88;;;8.43;100.00
55490;BME280;44029;52.956;4.772;2023-04-25T04:15:42;101287.66;;;8.60;100.00
55490;BME280;44029;52.956;4.772;2023-04-25T04:18:07;101290.00;;;8.56;100.00
55490;BME280;44029;52.956;4.772;2023-04-25T04:20:33;101288.59;;;8.54;100.00
55490;BME280;44029;52.956;4.772;2023-04-25T04:22:58;101289.34;;;8.61;100.00
55490;BME280;44029;52.956;4.772;2023-04-25T04:25:24;101287.00;;;8.64;100.00
55490;BME280;44029;52.956;4.772;2023-04-25T04:27:50;101295.63;;;8.61;100.00
55490;BME280;44029;52.956;4.772;2023-04-25T04:30:23;101297.69;;;8.66;100.00
55490;BME280;44029;52.956;4.772;2023-04-25T04:32:50;101298.28;;;8.86;100.00
55490;BME280;44029;52.956;4.772;2023-04-25T04:35:15;101297.94;;;8.64;100.00
55490;BME280;44029;52.956;4.772;2023-04-25T04:37:41;101293.66;;;8.50;100.00
55490;BME280;44029;52.956;4.772;2023-04-25T04:40:06;101290.34;;;8.85;100.00
55490;BME280;44029;52.956;4.772;2023-04-25T04:42:32;101294.72;;;8.67;100.00
55490;BME280;44029;52.956;4.772;2023-04-25T04:44:57;101300.19;;;8.67;100.00
55490;BME280;44029;52.956;4.772;2023-04-25T04:47:24;101297.31;;;8.81;100.00
55490;BME280;44029;52.956;4.772;2023-04-25T04:49:50;101298.59;;;8.97;100.00
55490;BME280;44029;52.956;4.772;2023-04-25T04:52:16;101300.34;;;8.73;100.00
55490;BME280;44029;52.956;4.772;2023-04-25T04:54:41;101307.50;;;8.74;100.00
55490;BME280;44029;52.956;4.772;2023-04-25T04:57:07;101316.16;;;8.89;100.00
55490;BME280;44029;52.956;4.772;2023-04-25T04:59:32;101313.69;;;8.81;100.00
55490;BME280;44029;52.956;4.772;2023-04-25T05:01:58;101317.06;;;8.83;100.00
55490;BME280;44029;52.956;4.772;2023-04-25T05:04:23;101319.03;;;8.94;100.00
55490;BME280;44029;52.956;4.772;2023-04-25T05:06:48;101318.13;;;8.82;100.00
55490;BME280;44029;52.956;4.772;2023-04-25T05:09:14;101315.72;;;9.41;100.00
55490;BME280;44029;52.956;4.772;2023-04-25T05:11:40;101318.13;;;9.79;100.00
55490;BME280;44029;52.956;4.772;2023-04-25T05:14:05;101319.72;;;9.99;100.00
55490;BME280;44029;52.956;4.772;2023-04-25T05:16:30;101324.28;;;9.75;100.00
55490;BME280;44029;52.956;4.772;2023-04-25T05:18:56;101324.16;;;9.39;100.00
55490;BME280;44029;52.956;4.772;2023-04-25T05:21:21;101333.13;;;9.28;100.00
55490;BME280;44029;52.956;4.772;2023-04-25T05:23:47;101339.56;;;9.52;100.00
55490;BME280;44029;52.956;4.772;2023-04-25T05:26:12;101337.97;;;9.44;100.00
55490;BME280;44029;52.956;4.772;2023-04-25T05:28:41;101344.06;;;9.28;100.00
55490;BME280;44029;52.956;4.772;2023-04-25T05:31:07;101355.97;;;9.34;100.00
55490;BME280;44029;52.956;4.772;2023-04-25T05:33:32;101362.97;;;9.29;100.00
55490;BME280;44029;52.956;4.772;2023-04-25T05:35:58;101382.84;;;8.81;100.00
55490;BME280;44029;52.956;4.772;2023-04-25T05:38:23;101393.13;;;8.61;100.00
55490;BME280;44029;52.956;4.772;2023-04-25T05:40:48;101381.28;;;8.10;100.00
55490;BME280;44029;52.956;4.772;2023-04-25T05:43:14;101386.81;;;8.03;100.00
55490;BME280;44029;52.956;4.772;2023-04-25T05:45:39;101368.16;;;8.25;100.00
55490;BME280;44029;52.956;4.772;2023-04-25T05:48:05;101371.94;;;8.31;100.00
55490;BME280;44029;52.956;4.772;2023-04-25T05:50:30;101377.56;;;8.61;100.00
55490;BME280;44029;52.956;4.772;2023-04-25T05:52:56;101385.84;;;8.73;100.00
55490;BME280;44029;52.956;4.772;2023-04-25T05:55:21;101382.94;;;8.93;100.00
55490;BME280;44029;52.956;4.772;2023-04-25T05:57:47;101376.44;;;9.13;100.00
55490;BME280;44029;52.956;4.772;2023-04-25T06:00:13;101369.44;;;9.35;100.00
55490;BME280;44029;52.956;4.772;2023-04-25T06:02:40;101376.19;;;9.33;100.00
55490;BME280;44029;52.956;4.772;2023-04-25T06:05:05;101373.97;;;9.23;100.00
55490;BME280;44029;52.956;4.772;2023-04-25T06:07:31;101388.06;;;9.57;100.00
55490;BME280;44029;52.956;4.772;2023-04-25T06:09:56;101389.88;;;9.81;100.00
55490;BME280;44029;52.956;4.772;2023-04-25T06:12:22;101380.19;;;11.22;100.00
55490;BME280;44029;52.956;4.772;2023-04-25T06:14:47;101381.72;;;11.30;100.00
55490;BME280;44029;52.956;4.772;2023-04-25T06:17:13;101384.34;;;11.25;100.00
55490;BME280;44029;52.956;4.772;2023-04-25T06:19:38;101387.00;;;10.84;100.00
55490;BME280;44029;52.956;4.772;2023-04-25T06:22:04;101392.00;;;10.99;100.00
55490;BME280;44029;52.956;4.772;2023-04-25T06:24:29;101399.53;;;10.26;100.00
55490;BME280;44029;52.956;4.772;2023-04-25T06:26:54;101397.97;;;11.08;100.00
55490;BME280;44029;52.956;4.772;2023-04-25T06:29:20;101401.63;;;11.77;100.00
55490;BME280;44029;52.956;4.772;2023-04-25T06:31:46;101394.19;;;11.49;100.00
55490;BME280;44029;52.956;4.772;2023-04-25T06:34:11;101397.03;;;10.90;100.00
55490;BME280;44029;52.956;4.772;2023-04-25T06:36:37;101392.63;;;10.77;100.00
55490;BME280;44029;52.956;4.772;2023-04-25T06:39:02;101403.91;;;10.69;100.00
55490;BME280;44029;52.956;4.772;2023-04-25T06:41:28;101404.91;;;11.51;100.00
55490;BME280;44029;52.956;4.772;2023-04-25T06:43:53;101391.34;;;12.98;92.42
55490;BME280;44029;52.956;4.772;2023-04-25T06:46:18;101395.94;;;14.57;80.60
55490;BME280;44029;52.956;4.772;2023-04-25T06:48:44;101395.16;;;15.62;71.27
55490;BME280;44029;52.956;4.772;2023-04-25T06:51:09;101408.09;;;14.99;63.05
55490;BME280;44029;52.956;4.772;2023-04-25T06:53:35;101401.22;;;15.59;61.56
55490;BME280;44029;52.956;4.772;2023-04-25T06:56:00;101406.03;;;15.84;61.69
55490;BME280;44029;52.956;4.772;2023-04-25T06:58:26;101411.75;;;15.73;61.98
55490;BME280;44029;52.956;4.772;2023-04-25T07:00:51;101409.47;;;14.64;65.01
55490;BME280;44029;52.956;4.772;2023-04-25T07:03:16;101419.75;;;13.43;73.75
55490;BME280;44029;52.956;4.772;2023-04-25T07:05:42;101422.06;;;13.51;81.52
55490;BME280;44029;52.956;4.772;2023-04-25T07:08:07;101423.06;;;13.06;85.93
55490;BME280;44029;52.956;4.772;2023-04-25T07:10:33;101426.34;;;13.64;85.30
55490;BME280;44029;52.956;4.772;2023-04-25T07:12:58;101425.47;;;13.19;86.94
55490;BME280;44029;52.956;4.772;2023-04-25T07:15:23;101431.00;;;13.02;80.70
55490;BME280;44029;52.956;4.772;2023-04-25T07:17:49;101427.13;;;13.20;84.02
55490;BME280;44029;52.956;4.772;2023-04-25T07:20:14;101429.88;;;13.81;87.85
55490;BME280;44029;52.956;4.772;2023-04-25T07:22:41;101435.38;;;13.20;79.58
55490;BME280;44029;52.956;4.772;2023-04-25T07:25:07;101435.31;;;12.47;86.28
55490;BME280;44029;52.956;4.772;2023-04-25T07:27:33;101446.09;;;11.39;100.00
55490;BME280;44029;52.956;4.772;2023-04-25T07:29:59;101456.72;;;11.88;100.00
55490;BME280;44029;52.956;4.772;2023-04-25T07:32:25;101455.81;;;12.56;100.00
55490;BME280;44029;52.956;4.772;2023-04-25T07:34:50;101453.69;;;12.75;100.00
55490;BME280;44029;52.956;4.772;2023-04-25T07:37:16;101454.00;;;13.52;100.00
55490;BME280;44029;52.956;4.772;2023-04-25T07:39:44;101467.63;;;13.42;100.00
55490;BME280;44029;52.956;4.772;2023-04-25T07:42:11;101464.28;;;14.28;100.00
55490;BME280;44029;52.956;4.772;2023-04-25T07:44:37;101461.13;;;13.92;98.02
55490;BME280;44029;52.956;4.772;2023-04-25T07:47:06;101461.09;;;12.75;96.75
55490;BME280;44029;52.956;4.772;2023-04-25T07:49:37;101457.47;;;13.42;91.99
55490;BME280;44029;52.956;4.772;2023-04-25T07:52:03;101470.69;;;14.61;72.14
55490;BME280;44029;52.956;4.772;2023-04-25T07:54:30;101470.81;;;14.76;65.39
55490;BME280;44029;52.956;4.772;2023-04-25T07:56:55;101478.41;;;14.64;62.60
55490;BME280;44029;52.956;4.772;2023-04-25T07:59:21;101484.59;;;14.76;60.67
55490;BME280;44029;52.956;4.772;2023-04-25T08:01:47;101481.69;;;14.88;65.67
55490;BME280;44029;52.956;4.772;2023-04-25T08:04:12;101482.97;;;15.55;64.02
55490;BME280;44029;52.956;4.772;2023-04-25T08:06:37;101485.91;;;15.43;70.02
55490;BME280;44029;52.956;4.772;2023-04-25T08:09:03;101495.22;;;15.27;67.52
55490;BME280;44029;52.956;4.772;2023-04-25T08:11:29;101495.28;;;15.37;68.90
55490;BME280;44029;52.956;4.772;2023-04-25T08:13:55;101502.91;;;14.87;77.61
55490;BME280;44029;52.956;4.772;2023-04-25T08:16:20;101495.19;;;15.70;74.51
55490;BME280;44029;52.956;4.772;2023-04-25T08:18:45;101509.72;;;16.02;70.11
55490;BME280;44029;52.956;4.772;2023-04-25T08:21:11;101516.56;;;13.79;71.47
55490;BME280;44029;52.956;4.772;2023-04-25T08:23:37;101517.69;;;13.05;77.89
55490;BME280;44029;52.956;4.772;2023-04-25T08:26:02;101525.19;;;13.09;78.86
55490;BME280;44029;52.956;4.772;2023-04-25T08:28:28;101525.72;;;14.28;74.01
55490;BME280;44029;52.956;4.772;2023-04-25T08:30:54;101525.28;;;15.23;90.78
55490;BME280;44029;52.956;4.772;2023-04-25T08:33:19;101535.84;;;13.57;100.00
55490;BME280;44029;52.956;4.772;2023-04-25T08:35:44;101540.00;;;12.91;100.00
55490;BME280;44029;52.956;4.772;2023-04-25T08:38:10;101548.88;;;12.36;100.00
55490;BME280;44029;52.956;4.772;2023-04-25T08:40:38;101560.81;;;11.89;100.00
55490;BME280;44029;52.956;4.772;2023-04-25T08:43:05;101560.91;;;12.06;100.00
55490;BME280;44029;52.956;4.772;2023-04-25T08:45:38;101563.06;;;11.80;100.00
55490;BME280;44029;52.956;4.772;2023-04-25T08:48:05;101568.00;;;11.43;100.00
55490;BME280;44029;52.956;4.772;2023-04-25T08:50:33;101573.00;;;11.22;100.00
55490;BME280;44029;52.956;4.772;2023-04-25T08:52:59;101569.66;;;11.68;100.00
55490;BME280;44029;52.956;4.772;2023-04-25T08:55:29;101573.00;;;12.05;100.00
55490;BME280;44029;52.956;4.772;2023-04-25T08:57:56;101573.09;;;12.10;99.42
55490;BME280;44029;52.956;4.772;2023-04-25T09:00:23;101582.19;;;11.99;99.73
55490;BME280;44029;52.956;4.772;2023-04-25T09:02:48;101580.16;;;12.06;96.85
55490;BME280;44029;52.956;4.772;2023-04-25T09:05:14;101582.63;;;12.19;89.37
55490;BME280;44029;52.956;4.772;2023-04-25T09:07:40;101591.63;;;11.79;90.31
55490;BME280;44029;52.956;4.772;2023-04-25T09:10:05;101591.56;;;12.27;87.78
55490;BME280;44029;52.956;4.772;2023-04-25T09:12:31;101600.13;;;12.71;89.66
55490;BME280;44029;52.956;4.772;2023-04-25T09:15:11;101582.25;;;13.31;87.59
55490;BME280;44029;52.956;4.772;2023-04-25T09:17:37;101609.59;;;12.63;96.22
55490;BME280;44029;52.956;4.772;2023-04-25T09:20:10;101610.88;;;12.72;98.65
55490;BME280;44029;52.956;4.772;2023-04-25T09:22:37;101611.53;;;13.08;100.00
55490;BME280;44029;52.956;4.772;2023-04-25T09:25:12;101613.69;;;13.35;100.00
55490;BME280;44029;52.956;4.772;2023-04-25T09:27:50;101620.59;;;13.54;100.00
55490;BME280;44029;52.956;4.772;2023-04-25T09:30:18;101620.13;;;13.12;100.00
55490;BME280;44029;52.956;4.772;2023-04-25T09:32:56;101624.44;;;13.37;100.00
55490;BME280;44029;52.956;4.772;2023-04-25T09:35:25;101620.72;;;13.14;100.00
55490;BME280;44029;52.956;4.772;2023-04-25T09:37:53;101631.25;;;12.88;100.00
55490;BME280;44029;52.956;4.772;2023-04-25T09:40:19;101627.47;;;12.77;100.00
55490;BME280;44029;52.956;4.772;2023-04-25T09:42:44;101628.31;;;12.78;100.00
55490;BME280;44029;52.956;4.772;2023-04-25T09:45:12;101627.91;;;12.57;100.00
55490;BME280;44029;52.956;4.772;2023-04-25T09:47:38;101634.81;;;12.19;100.00
55490;BME280;44029;52.956;4.772;2023-04-25T09:50:13;101636.66;;;12.83;100.00
55490;BME280;44029;52.956;4.772;2023-04-25T09:52:40;101635.22;;;13.09;100.00
55490;BME280;44029;52.956;4.772;2023-04-25T09:55:06;101633.69;;;13.02;97.99
55490;BME280;44029;52.956;4.772;2023-04-25T09:57:31;101637.84;;;12.59;99.73
55490;BME280;44029;52.956;4.772;2023-04-25T09:59:57;101638.97;;;12.74;100.00
55490;BME280;44029;52.956;4.772;2023-04-25T10:02:26;101640.28;;;12.31;100.00
55490;BME280;44029;52.956;4.772;2023-04-25T10:04:55;101640.44;;;12.01;100.00
55490;BME280;44029;52.956;4.772;2023-04-25T10:07:26;101640.88;;;12.74;100.00
55490;BME280;44029;52.956;4.772;2023-04-25T10:10:03;101642.63;;;12.80;100.00
55490;BME280;44029;52.956;4.772;2023-04-25T10:12:30;101637.13;;;12.51;100.00
55490;BME280;44029;52.956;4.772;2023-04-25T10:14:59;101650.78;;;13.04;100.00
55490;BME280;44029;52.956;4.772;2023-04-25T10:17:26;101645.44;;;12.68;99.78
55490;BME280;44029;52.956;4.772;2023-04-25T10:19:54;101650.81;;;13.21;93.26
55490;BME280;44029;52.956;4.772;2023-04-25T10:22:39;101661.00;;;12.63;100.00
55490;BME280;44029;52.956;4.772;2023-04-25T10:25:07;101661.72;;;12.06;100.00
55490;BME280;44029;52.956;4.772;2023-04-25T10:27:34;101659.06;;;11.99;100.00
55490;BME280;44029;52.956;4.772;2023-04-25T10:30:18;101654.09;;;12.48;100.00
55490;BME280;44029;52.956;4.772;2023-04-25T10:32:44;101657.03;;;12.70;100.00
55490;BME280;44029;52.956;4.772;2023-04-25T10:35:18;101663.75;;;12.63;100.00
55490;BME280;44029;52.956;4.772;2023-04-25T10:38:08;101668.13;;;12.75;95.84
55490;BME280;44029;52.956;4.772;2023-04-25T10:40:34;101668.25;;;12.40;97.14
55490;BME280;44029;52.956;4.772;2023-04-25T10:45:56;101675.34;;;12.65;99.69
55490;BME280;44029;52.956;4.772;2023-04-25T10:48:27;101680.25;;;12.91;100.00
55490;BME280;44029;52.956;4.772;2023-04-25T10:51:09;101672.53;;;12.48;94.89
55490;BME280;44029;52.956;4.772;2023-04-25T10:53:35;101680.22;;;11.98;96.08
55490;BME280;44029;52.956;4.772;2023-04-25T10:56:11;101687.63;;;12.74;100.00
55490;BME280;44029;52.956;4.772;2023-04-25T10:58:42;101674.47;;;12.76;98.12
55490;BME280;44029;52.956;4.772;2023-04-25T11:01:07;101678.38;;;12.51;100.00
55490;BME280;44029;52.956;4.772;2023-04-25T11:03:38;101684.97;;;12.79;100.00
55490;BME280;44029;52.956;4.772;2023-04-25T11:06:06;101685.44;;;12.35;100.00
55490;BME280;44029;52.956;4.772;2023-04-25T11:08:50;101688.06;;;11.83;100.00
55490;BME280;44029;52.956;4.772;2023-04-25T11:11:17;101692.97;;;12.05;90.92
55490;BME280;44029;52.956;4.772;2023-04-25T11:13:43;101692.34;;;12.38;95.32
55490;BME280;44029;52.956;4.772;2023-04-25T11:16:08;101684.69;;;12.52;89.08
55490;BME280;44029;52.956;4.772;2023-04-25T11:18:34;101693.13;;;12.22;86.68
55490;BME280;44029;52.956;4.772;2023-04-25T11:20:59;101686.97;;;12.43;96.19
55490;BME280;44029;52.956;4.772;2023-04-25T11:23:26;101681.66;;;12.65;97.94
55490;BME280;44029;52.956;4.772;2023-04-25T11:25:52;101692.88;;;12.11;98.14
55490;BME280;44029;52.956;4.772;2023-04-25T11:28:21;101688.53;;;12.39;99.97
55490;BME280;44029;52.956;4.772;2023-04-25T11:30:48;101699.44;;;12.22;97.27
55490;BME280;44029;52.956;4.772;2023-04-25T11:33:15;101703.41;;;12.67;100.00
55490;BME280;44029;52.956;4.772;2023-04-25T11:35:40;101701.66;;;12.61;100.00
55490;BME280;44029;52.956;4.772;2023-04-25T11:38:06;101697.66;;;13.38;100.00
55490;BME280;44029;52.956;4.772;2023-04-25T11:40:32;101695.84;;;13.94;99.21
55490;BME280;44029;52.956;4.772;2023-04-25T11:43:00;101699.59;;;14.05;100.00
55490;BME280;44029;52.956;4.772;2023-04-25T11:45:26;101688.16;;;13.96;95.40
55490;BME280;44029;52.956;4.772;2023-04-25T11:47:52;101701.03;;;13.57;90.22
55490;BME280;44029;52.956;4.772;2023-04-25T11:50:17;101715.72;;;13.62;97.08
55490;BME280;44029;52.956;4.772;2023-04-25T11:52:45;101714.75;;;13.40;100.00
55490;BME280;44029;52.956;4.772;2023-04-25T11:55:15;101715.75;;;13.33;100.00
55490;BME280;44029;52.956;4.772;2023-04-25T11:57:42;101725.38;;;12.79;100.00
55490;BME280;44029;52.956;4.772;2023-04-25T12:00:13;101726.34;;;13.13;100.00
55490;BME280;44029;52.956;4.772;2023-04-25T12:02:47;101735.50;;;12.49;93.23
55490;BME280;44029;52.956;4.772;2023-04-25T12:05:14;101751.63;;;11.98;94.11
55490;BME280;44029;52.956;4.772;2023-04-25T12:07:41;101742.41;;;11.93;100.00
55490;BME280;44029;52.956;4.772;2023-04-25T12:10:13;101746.75;;;12.12;100.00
55490;BME280;44029;52.956;4.772;2023-04-25T12:12:44;101750.78;;;12.45;100.00
55490;BME280;44029;52.956;4.772;2023-04-25T12:17:35;101753.41;;;12.16;92.71
55490;BME280;44029;52.956;4.772;2023-04-25T12:20:07;101751.25;;;12.30;94.98
55490;BME280;44029;52.956;4.772;2023-04-25T12:22:33;101755.94;;;12.30;100.00
55490;BME280;44029;52.956;4.772;2023-04-25T12:24:59;101758.78;;;11.99;100.00
55490;BME280;44029;52.956;4.772;2023-04-25T12:27:25;101763.44;;;11.99;100.00
55490;BME280;44029;52.956;4.772;2023-04-25T12:29:53;101761.41;;;11.94;100.00
55490;BME280;44029;52.956;4.772;2023-04-25T12:32:19;101762.00;;;11.96;100.00
55490;BME280;44029;52.956;4.772;2023-04-25T12:34:45;101763.09;;;12.19;100.00
55490;BME280;44029;52.956;4.772;2023-04-25T12:37:10;101758.44;;;11.96;100.00
55490;BME280;44029;52.956;4.772;2023-04-25T12:39:36;101765.09;;;12.12;100.00
55490;BME280;44029;52.956;4.772;2023-04-25T12:42:02;101755.81;;;12.25;100.00
55490;BME280;44029;52.956;4.772;2023-04-25T12:44:28;101767.25;;;11.98;100.00
55490;BME280;44029;52.956;4.772;2023-04-25T12:46:53;101762.72;;;12.04;100.00
55490;BME280;44029;52.956;4.772;2023-04-25T12:49:19;101755.34;;;12.28;100.00